Time;durP1;ratioP1;P1;durP2;ratioP2;P2;SDS_P1;SDS_P2;PMS_P1;PMS_P2;Temp;Humidity;BMP_temperature;BMP_pressure;BME280_temperature;BME280_humidity;BME280_pressure;Samples;Min_cycle;Max_cycle;Signal;HPM_P1;HPM_P2
2022/10/12 00:01:23;;;;;;;17.88;7.07;;;7.20;99.90;;;;;;5051695;28;20130;-85
2022/10/12 00:03:49;;;;;;;15.52;6.63;;;7.20;99.90;;;;;;5024003;28;20837;-84
2022/10/12 00:06:20;;;;;;;17.80;6.40;;;7.20;99.90;;;;;;5042696;28;20041;-85
2022/10/12 00:08:48;;;;;;;10.88;5.35;;;7.20;99.90;;;;;;5029763;28;20037;-86
2022/10/12 00:11:17;;;;;;;14.55;5.88;;;7.20;99.90;;;;;;5042730;28;20086;-84
2022/10/12 00:13:43;;;;;;;13.73;5.85;;;7.30;99.90;;;;;;5062917;28;20058;-85
2022/10/12 00:16:10;;;;;;;14.68;6.00;;;7.30;99.90;;;;;;5033667;28;20048;-85
2022/10/12 00:18:37;;;;;;;14.05;6.07;;;7.30;99.90;;;;;;5049915;28;20064;-85
2022/10/12 00:21:12;;;;;;;13.85;5.72;;;7.30;99.90;;;;;;5046568;28;20079;-84
2022/10/12 00:23:39;;;;;;;13.52;5.35;;;7.30;99.90;;;;;;5055221;28;20064;-85
2022/10/12 00:26:07;;;;;;;16.83;5.57;;;7.30;99.90;;;;;;5019131;28;20069;-84
2022/10/12 00:28:34;;;;;;;12.13;5.50;;;7.20;99.90;;;;;;5039279;28;20080;-83
2022/10/12 00:31:01;;;;;;;12.40;5.10;;;7.20;99.90;;;;;;5044391;28;20033;-84
2022/10/12 00:33:28;;;;;;;13.23;4.85;;;7.10;99.90;;;;;;5055140;28;20033;-84
2022/10/12 00:35:54;;;;;;;10.02;5.43;;;7.10;99.90;;;;;;5047363;28;20064;-84
2022/10/12 00:38:21;;;;;;;14.50;5.10;;;7.10;99.90;;;;;;5040786;28;20053;-84
2022/10/12 00:40:46;;;;;;;11.43;5.80;;;7.10;99.90;;;;;;5025857;28;20084;-84
2022/10/12 00:43:33;;;;;;;10.43;4.70;;;7.10;99.90;;;;;;5038343;28;20057;-84
2022/10/12 00:46:00;;;;;;;11.55;4.68;;;7.10;99.90;;;;;;5040250;28;20080;-84
2022/10/12 00:48:26;;;;;;;9.77;5.03;;;7.10;99.90;;;;;;5045205;28;20065;-84
2022/10/12 00:50:53;;;;;;;12.63;5.10;;;7.10;99.90;;;;;;5035887;28;20080;-84
2022/10/12 00:53:24;;;;;;;11.48;5.07;;;7.00;99.90;;;;;;5031931;28;20041;-85
2022/10/12 00:55:53;;;;;;;9.15;4.82;;;7.10;99.90;;;;;;5038484;28;20045;-84
2022/10/12 00:58:20;;;;;;;11.40;4.85;;;7.00;99.90;;;;;;5040077;28;20539;-85
2022/10/12 01:00:46;;;;;;;10.40;4.55;;;7.10;99.90;;;;;;5053113;28;20156;-84
2022/10/12 01:03:16;;;;;;;9.18;4.20;;;7.10;99.90;;;;;;5048970;28;20080;-85
2022/10/12 01:05:42;;;;;;;10.65;4.75;;;7.10;99.90;;;;;;5049853;28;20045;-85
2022/10/12 01:08:08;;;;;;;14.18;5.05;;;7.10;99.90;;;;;;5048433;28;20345;-85
2022/10/12 01:10:33;;;;;;;12.77;5.28;;;7.00;99.90;;;;;;5043366;28;20097;-85
2022/10/12 01:13:00;;;;;;;11.20;5.35;;;7.00;99.90;;;;;;5043570;28;20080;-85
2022/10/12 01:15:31;;;;;;;15.18;6.03;;;6.90;99.90;;;;;;5044001;28;20133;-85
2022/10/12 01:18:17;;;;;;;12.27;4.97;;;6.90;99.90;;;;;;5045592;28;20029;-84
2022/10/12 01:21:21;;;;;;;10.65;4.28;;;6.90;99.90;;;;;;5040840;28;20323;-85
2022/10/12 01:24:20;;;;;;;10.68;4.35;;;7.00;99.90;;;;;;5030378;28;20231;-85
2022/10/12 01:27:02;;;;;;;8.80;4.18;;;7.00;99.90;;;;;;5046502;28;20049;-85
2022/10/12 01:29:30;;;;;;;8.93;4.67;;;7.00;99.90;;;;;;5057705;28;20469;-85
2022/10/12 01:32:02;;;;;;;10.43;5.40;;;7.10;99.90;;;;;;5057832;28;20045;-85
2022/10/12 01:34:36;;;;;;;11.15;5.35;;;7.10;99.90;;;;;;5031403;28;20100;-85
2022/10/12 01:37:06;;;;;;;12.98;5.32;;;7.10;99.90;;;;;;5045387;28;20156;-85
2022/10/12 01:39:42;;;;;;;13.45;5.93;;;7.20;99.90;;;;;;5022257;28;20057;-85
2022/10/12 01:42:15;;;;;;;10.88;5.10;;;7.10;99.90;;;;;;5025364;28;20052;-85
2022/10/12 01:44:40;;;;;;;12.40;5.20;;;7.10;99.90;;;;;;5043532;28;20037;-85
2022/10/12 01:47:06;;;;;;;13.82;5.93;;;7.10;99.90;;;;;;5024628;28;20092;-85
2022/10/12 01:49:34;;;;;;;15.45;5.18;;;7.10;99.90;;;;;;5051568;28;20049;-85
2022/10/12 01:52:17;;;;;;;9.43;4.75;;;7.00;99.90;;;;;;5029246;28;20045;-85
2022/10/12 01:55:03;;;;;;;9.25;4.30;;;7.00;99.90;;;;;;5034068;28;20045;-85
2022/10/12 01:57:38;;;;;;;14.98;4.75;;;6.90;99.90;;;;;;5064369;28;20053;-85
2022/10/12 02:00:10;;;;;;;12.43;5.38;;;6.80;99.90;;;;;;5053338;28;20052;-86
2022/10/12 02:02:51;;;;;;;14.70;5.70;;;6.80;99.90;;;;;;5041098;28;20049;-85
2022/10/12 02:05:17;;;;;;;9.77;5.13;;;6.70;99.90;;;;;;5034053;28;20435;-84
2022/10/12 02:08:00;;;;;;;16.67;7.45;;;6.70;99.90;;;;;;5044218;28;20068;-85
2022/10/12 02:10:40;;;;;;;9.15;6.05;;;6.60;99.90;;;;;;5056332;28;20046;-85
2022/10/12 02:13:09;;;;;;;13.60;6.10;;;6.60;99.90;;;;;;5055681;28;20108;-85
2022/10/12 02:15:37;;;;;;;15.77;6.45;;;6.50;99.90;;;;;;5037570;28;20725;-86
2022/10/12 02:18:04;;;;;;;15.68;6.97;;;6.50;99.90;;;;;;5040757;28;20060;-85
2022/10/12 02:20:31;;;;;;;17.15;7.03;;;6.50;99.90;;;;;;5048690;28;20060;-85
2022/10/12 02:22:58;;;;;;;12.93;6.80;;;6.50;99.90;;;;;;5021387;28;20041;-85
2022/10/12 02:25:26;;;;;;;12.60;6.75;;;6.40;99.90;;;;;;5016810;28;20060;-84
2022/10/12 02:28:01;;;;;;;9.23;5.80;;;6.40;99.90;;;;;;5020580;28;20041;-85
2022/10/12 02:30:26;;;;;;;15.15;6.57;;;6.40;99.90;;;;;;5039926;28;20057;-86
2022/10/12 02:33:03;;;;;;;10.52;5.68;;;6.40;99.90;;;;;;5011594;28;20049;-86
2022/10/12 02:35:34;;;;;;;11.20;6.13;;;6.40;99.90;;;;;;5029362;28;20571;-85
2022/10/12 02:38:08;;;;;;;14.63;6.82;;;6.40;99.90;;;;;;5056598;28;20045;-85
2022/10/12 02:40:51;;;;;;;12.88;6.35;;;6.40;99.90;;;;;;5027967;28;20037;-85
2022/10/12 02:43:31;;;;;;;13.25;6.13;;;6.40;99.90;;;;;;5028597;28;20041;-85
2022/10/12 02:45:59;;;;;;;20.55;7.10;;;6.40;99.90;;;;;;5046681;28;20052;-85
2022/10/12 02:48:27;;;;;;;11.15;6.07;;;6.40;99.90;;;;;;5056030;28;20033;-85
2022/10/12 02:50:56;;;;;;;9.80;5.60;;;6.40;99.90;;;;;;5030761;28;20171;-85
2022/10/12 02:53:23;;;;;;;17.52;7.00;;;6.30;99.90;;;;;;5059993;28;20052;-84
2022/10/12 02:55:51;;;;;;;12.10;6.43;;;6.30;99.90;;;;;;5043455;28;20052;-84
2022/10/12 02:58:18;;;;;;;12.35;6.28;;;6.30;99.90;;;;;;5032397;28;20045;-85
2022/10/12 03:00:44;;;;;;;12.25;5.70;;;6.40;99.90;;;;;;5046338;28;20045;-86
2022/10/12 03:03:09;;;;;;;13.60;6.32;;;6.30;99.90;;;;;;5043952;28;20092;-85
2022/10/12 03:05:35;;;;;;;13.48;6.40;;;6.30;99.90;;;;;;5038190;28;20727;-86
2022/10/12 03:08:01;;;;;;;13.10;7.72;;;6.20;99.90;;;;;;5031732;28;20068;-84
2022/10/12 03:10:27;;;;;;;14.02;7.28;;;6.20;99.90;;;;;;5050438;28;20036;-86
2022/10/12 03:12:53;;;;;;;14.10;6.63;;;6.10;99.90;;;;;;5056000;28;20059;-85
2022/10/12 03:15:19;;;;;;;13.52;7.78;;;6.20;99.90;;;;;;5060884;28;20063;-85
2022/10/12 03:17:44;;;;;;;18.42;7.35;;;6.10;99.90;;;;;;5030835;28;20067;-86
2022/10/12 03:20:10;;;;;;;14.57;6.88;;;6.10;99.90;;;;;;5063076;28;20243;-86
2022/10/12 03:22:36;;;;;;;12.38;6.38;;;6.10;99.90;;;;;;5036221;28;20052;-85
2022/10/12 03:25:02;;;;;;;16.38;6.30;;;6.10;99.90;;;;;;5043394;28;20136;-85
2022/10/12 03:27:27;;;;;;;11.80;6.43;;;6.20;99.90;;;;;;5035138;28;20037;-85
2022/10/12 03:29:53;;;;;;;14.90;6.28;;;6.20;99.90;;;;;;5054983;28;20523;-85
2022/10/12 03:32:19;;;;;;;9.35;5.45;;;6.20;99.90;;;;;;5054616;28;20567;-85
2022/10/12 03:34:44;;;;;;;12.55;6.25;;;6.10;99.90;;;;;;5041528;28;20053;-85
2022/10/12 03:37:10;;;;;;;9.75;5.57;;;6.10;99.90;;;;;;5043078;28;20060;-85
2022/10/12 03:39:36;;;;;;;9.77;5.55;;;6.00;99.90;;;;;;5018179;28;20037;-85
2022/10/12 03:42:01;;;;;;;13.60;5.53;;;6.00;99.90;;;;;;5055529;28;20484;-86
2022/10/12 03:44:27;;;;;;;10.45;5.95;;;6.00;99.90;;;;;;5037782;28;20133;-85
2022/10/12 03:46:53;;;;;;;8.90;4.78;;;6.10;99.90;;;;;;4998752;28;20127;-85
2022/10/12 03:49:19;;;;;;;7.90;5.00;;;6.00;99.90;;;;;;5038760;28;20052;-86
2022/10/12 03:51:44;;;;;;;10.73;5.40;;;5.90;99.90;;;;;;5039017;28;20056;-85
2022/10/12 03:54:10;;;;;;;8.38;4.75;;;5.90;99.90;;;;;;5023627;28;20073;-85
2022/10/12 03:56:36;;;;;;;11.18;5.32;;;5.90;99.90;;;;;;5022475;28;20053;-85
2022/10/12 03:59:01;;;;;;;9.70;6.20;;;5.80;99.90;;;;;;5059343;28;20049;-85
2022/10/12 04:01:27;;;;;;;13.60;5.95;;;5.70;99.90;;;;;;5040667;28;20045;-85
2022/10/12 04:03:53;;;;;;;10.15;5.93;;;5.70;99.90;;;;;;5007636;28;20926;-85
2022/10/12 04:06:18;;;;;;;11.68;5.80;;;5.70;99.90;;;;;;5057074;28;20041;-84
2022/10/12 04:08:45;;;;;;;12.80;5.43;;;5.70;99.90;;;;;;5048405;28;20045;-84
2022/10/12 04:11:11;;;;;;;11.02;5.25;;;5.70;99.90;;;;;;5049570;28;20052;-84
2022/10/12 04:13:36;;;;;;;11.45;5.53;;;5.70;99.90;;;;;;5023283;28;20104;-85
2022/10/12 04:16:04;;;;;;;12.13;5.90;;;5.70;99.90;;;;;;5039650;28;20061;-84
2022/10/12 04:18:30;;;;;;;9.43;6.25;;;5.70;99.90;;;;;;5052511;28;20491;-84
2022/10/12 04:20:56;;;;;;;13.05;5.90;;;5.70;99.90;;;;;;5053864;28;20042;-85
2022/10/12 04:23:21;;;;;;;13.55;6.40;;;5.70;99.90;;;;;;5039515;28;20051;-84
2022/10/12 04:25:47;;;;;;;17.08;6.18;;;5.70;99.90;;;;;;5030424;28;20044;-84
2022/10/12 04:28:13;;;;;;;9.60;5.32;;;5.70;99.90;;;;;;5037260;28;20109;-85
2022/10/12 04:30:38;;;;;;;10.48;5.72;;;5.70;99.90;;;;;;5048448;28;20054;-85
2022/10/12 04:33:04;;;;;;;14.70;5.22;;;5.60;99.90;;;;;;5052431;28;20424;-85
2022/10/12 04:35:30;;;;;;;7.40;5.40;;;5.70;99.90;;;;;;5038622;28;20119;-85
2022/10/12 04:37:56;;;;;;;12.45;5.10;;;5.80;99.90;;;;;;5028604;28;20051;-86
2022/10/12 04:40:22;;;;;;;12.77;5.55;;;5.70;99.90;;;;;;5040891;28;20152;-84
2022/10/12 04:42:48;;;;;;;13.27;6.00;;;5.60;99.90;;;;;;5035809;28;20049;-86
2022/10/12 04:45:14;;;;;;;13.48;5.93;;;5.60;99.90;;;;;;5023052;28;20041;-86
2022/10/12 04:47:39;;;;;;;12.95;6.03;;;5.60;99.90;;;;;;5034198;28;20045;-87
2022/10/12 04:50:05;;;;;;;21.90;10.88;;;5.60;99.90;;;;;;5022998;28;20056;-86
2022/10/12 04:52:31;;;;;;;15.45;7.22;;;5.60;99.90;;;;;;5024066;28;20049;-87
2022/10/12 04:54:57;;;;;;;12.30;5.35;;;5.60;99.90;;;;;;5028542;28;20101;-86
2022/10/12 04:57:23;;;;;;;16.42;5.70;;;5.50;99.90;;;;;;5034867;28;20056;-86
2022/10/12 04:59:49;;;;;;;12.85;5.72;;;5.50;99.90;;;;;;5043653;28;20040;-85
2022/10/12 05:02:15;;;;;;;11.00;5.05;;;5.50;99.90;;;;;;5040833;28;20188;-85
2022/10/12 05:04:40;;;;;;;12.10;6.70;;;5.50;99.90;;;;;;5056410;28;20100;-85
2022/10/12 05:07:06;;;;;;;11.10;5.70;;;5.40;99.90;;;;;;5052613;28;20053;-85
2022/10/12 05:09:32;;;;;;;14.07;6.45;;;5.40;99.90;;;;;;5049180;28;20131;-85
2022/10/12 05:11:57;;;;;;;12.90;6.32;;;5.40;99.90;;;;;;5048585;28;20052;-85
2022/10/12 05:14:23;;;;;;;25.65;12.27;;;5.40;99.90;;;;;;5009454;28;20605;-86
2022/10/12 05:16:49;;;;;;;8.27;5.68;;;5.40;99.90;;;;;;5038361;28;20041;-86
2022/10/12 05:19:14;;;;;;;14.40;5.47;;;5.30;99.90;;;;;;5049180;28;20110;-85
2022/10/12 05:21:41;;;;;;;12.68;6.10;;;5.30;99.90;;;;;;5032323;28;20041;-86
2022/10/12 05:24:07;;;;;;;9.15;6.32;;;5.40;99.90;;;;;;5021434;28;20052;-88
2022/10/12 05:26:33;;;;;;;33.95;6.38;;;5.30;99.90;;;;;;5031797;28;20132;-90
2022/10/12 05:28:58;;;;;;;15.15;6.55;;;5.30;99.90;;;;;;5039804;28;20044;-87
2022/10/12 05:31:24;;;;;;;18.83;7.32;;;5.40;99.90;;;;;;5023572;28;20049;-85
2022/10/12 05:33:50;;;;;;;13.60;6.35;;;5.40;99.90;;;;;;5024813;28;20483;-86
2022/10/12 05:36:15;;;;;;;10.30;6.90;;;5.40;99.90;;;;;;5021770;28;20045;-85
2022/10/12 05:38:41;;;;;;;20.50;7.72;;;5.40;99.90;;;;;;5044549;28;20064;-85
2022/10/12 05:41:07;;;;;;;17.30;6.97;;;5.40;99.90;;;;;;5046326;28;20045;-86
2022/10/12 05:43:32;;;;;;;15.70;6.50;;;5.50;99.90;;;;;;5018570;28;20128;-85
2022/10/12 05:45:58;;;;;;;14.95;6.75;;;5.50;99.90;;;;;;5020680;28;20045;-85
2022/10/12 05:48:24;;;;;;;19.27;7.30;;;5.50;99.90;;;;;;5057813;28;20048;-85
2022/10/12 05:50:53;;;;;;;14.55;6.88;;;5.60;99.90;;;;;;5055910;28;20052;-85
2022/10/12 05:53:20;;;;;;;18.38;7.40;;;5.50;99.90;;;;;;5031848;28;20045;-83
2022/10/12 05:55:58;;;;;;;12.70;6.65;;;5.60;99.90;;;;;;5053545;28;20064;-84
2022/10/12 05:58:25;;;;;;;18.10;7.53;;;5.60;99.90;;;;;;5021482;28;20089;-84
2022/10/12 06:00:51;;;;;;;21.77;7.63;;;5.60;99.90;;;;;;5039310;28;20041;-85
2022/10/12 06:03:17;;;;;;;17.75;7.82;;;5.60;99.90;;;;;;5025101;28;20069;-84
2022/10/12 06:05:43;;;;;;;12.20;7.75;;;5.60;99.90;;;;;;5021749;28;20045;-84
2022/10/12 06:08:10;;;;;;;15.27;7.82;;;5.60;99.90;;;;;;5041514;28;20061;-84
2022/10/12 06:10:36;;;;;;;16.05;8.38;;;5.60;99.90;;;;;;5025459;28;20052;-85
2022/10/12 06:13:03;;;;;;;17.95;8.77;;;5.60;99.90;;;;;;5041655;28;20072;-84
2022/10/12 06:15:28;;;;;;;18.45;8.27;;;5.60;99.90;;;;;;5042049;28;20520;-84
2022/10/12 06:17:54;;;;;;;18.77;8.50;;;5.60;99.90;;;;;;5042618;28;20071;-84
2022/10/12 06:20:20;;;;;;;19.65;8.88;;;5.60;99.90;;;;;;5041892;28;20060;-84
2022/10/12 06:22:46;;;;;;;16.60;8.07;;;5.60;99.90;;;;;;5047720;28;20033;-85
2022/10/12 06:25:11;;;;;;;16.08;8.07;;;5.60;99.90;;;;;;5041566;28;20045;-85
2022/10/12 06:27:37;;;;;;;18.00;7.80;;;5.60;99.90;;;;;;5025085;28;20048;-84
2022/10/12 06:30:03;;;;;;;18.55;7.70;;;5.70;99.90;;;;;;5024925;28;20067;-84
2022/10/12 06:32:29;;;;;;;16.45;8.23;;;5.60;99.90;;;;;;5025815;28;20107;-84
2022/10/12 06:34:55;;;;;;;19.35;8.13;;;5.70;99.90;;;;;;5024512;28;20041;-84
2022/10/12 06:37:20;;;;;;;19.05;8.73;;;5.70;99.90;;;;;;5041608;28;20140;-85
2022/10/12 06:39:46;;;;;;;13.73;7.45;;;5.70;99.90;;;;;;5024394;28;20104;-84
2022/10/12 06:42:12;;;;;;;23.52;10.07;;;5.70;99.90;;;;;;5040980;28;20048;-85
2022/10/12 06:44:37;;;;;;;34.72;16.20;;;5.70;99.90;;;;;;5049915;28;20052;-84
2022/10/12 06:47:03;;;;;;;26.80;9.85;;;5.80;99.90;;;;;;5041233;28;20060;-84
2022/10/12 06:49:29;;;;;;;19.23;8.23;;;5.80;99.90;;;;;;5024559;28;20037;-83
2022/10/12 06:51:54;;;;;;;18.17;8.52;;;5.80;99.90;;;;;;5024241;28;20042;-84
2022/10/12 06:54:20;;;;;;;16.52;8.02;;;5.90;99.90;;;;;;5024415;28;20049;-84
2022/10/12 06:56:46;;;;;;;20.50;7.53;;;5.90;99.90;;;;;;5040799;28;20132;-83
2022/10/12 06:59:12;;;;;;;18.35;8.55;;;5.90;99.90;;;;;;5039560;28;20053;-84
2022/10/12 07:01:38;;;;;;;18.10;8.13;;;6.00;99.90;;;;;;5056669;28;20107;-83
2022/10/12 07:04:04;;;;;;;15.23;8.48;;;6.00;99.90;;;;;;5041165;28;20390;-83
2022/10/12 07:06:31;;;;;;;14.35;8.38;;;6.10;99.90;;;;;;5058937;28;20124;-83
2022/10/12 07:08:57;;;;;;;17.98;7.40;;;6.20;99.90;;;;;;5060532;28;20076;-83
2022/10/12 07:11:22;;;;;;;19.80;8.85;;;6.30;99.90;;;;;;5061098;28;20045;-84
2022/10/12 07:13:48;;;;;;;27.50;9.23;;;6.30;99.90;;;;;;5059976;28;20060;-83
2022/10/12 07:16:15;;;;;;;21.00;7.82;;;6.40;99.90;;;;;;5028335;28;20045;-84
2022/10/12 07:18:40;;;;;;;28.70;10.93;;;6.60;99.90;;;;;;5040303;28;20456;-84
2022/10/12 07:21:06;;;;;;;22.17;8.95;;;6.70;99.90;;;;;;5040322;28;20056;-83
2022/10/12 07:23:33;;;;;;;17.55;8.18;;;6.80;99.90;;;;;;5040191;28;20052;-83
2022/10/12 07:25:59;;;;;;;14.50;7.00;;;7.20;99.90;;;;;;5047167;28;20076;-84
2022/10/12 07:28:26;;;;;;;18.45;7.88;;;7.50;99.90;;;;;;5060886;28;20078;-84
2022/10/12 07:30:51;;;;;;;18.38;6.68;;;7.80;99.90;;;;;;5043510;28;20051;-84
2022/10/12 07:33:17;;;;;;;22.25;6.07;;;8.10;99.90;;;;;;5060125;28;20045;-84
2022/10/12 07:35:43;;;;;;;13.05;5.50;;;8.30;99.90;;;;;;5058283;28;20477;-84
2022/10/12 07:38:09;;;;;;;12.48;5.10;;;8.50;99.90;;;;;;5023944;28;20037;-84
2022/10/12 07:40:36;;;;;;;16.42;4.30;;;8.60;99.90;;;;;;5024114;28;20377;-87
2022/10/12 07:43:01;;;;;;;13.30;3.55;;;8.70;99.90;;;;;;5027864;28;20060;-85
2022/10/12 07:45:27;;;;;;;10.60;3.97;;;8.80;99.90;;;;;;5029258;28;20104;-85
2022/10/12 07:47:54;;;;;;;10.18;3.97;;;8.90;99.90;;;;;;5049391;28;20033;-85
2022/10/12 07:50:20;;;;;;;11.52;3.88;;;9.00;99.90;;;;;;5053769;28;20072;-85
2022/10/12 07:52:46;;;;;;;13.45;5.03;;;9.00;99.90;;;;;;5046204;28;20041;-85
2022/10/12 07:55:12;;;;;;;8.55;3.88;;;9.10;99.90;;;;;;5061102;28;20077;-85
2022/10/12 07:57:37;;;;;;;13.02;3.97;;;9.20;99.90;;;;;;5039555;28;20072;-85
2022/10/12 08:00:04;;;;;;;12.07;4.18;;;9.20;99.90;;;;;;5023206;28;20052;-85
2022/10/12 08:02:29;;;;;;;11.82;4.03;;;9.20;99.90;;;;;;5025545;28;20033;-84
2022/10/12 08:04:55;;;;;;;9.00;3.90;;;9.30;99.90;;;;;;5059415;28;20060;-85
2022/10/12 08:07:21;;;;;;;11.35;4.38;;;9.30;99.90;;;;;;5057201;28;20508;-85
2022/10/12 08:09:48;;;;;;;7.50;4.32;;;9.30;99.90;;;;;;5040867;28;20151;-85
2022/10/12 08:12:14;;;;;;;11.52;4.07;;;9.40;99.90;;;;;;5025520;28;20563;-85
2022/10/12 08:14:39;;;;;;;11.90;4.35;;;9.40;99.90;;;;;;5027104;28;20049;-85
2022/10/12 08:17:05;;;;;;;14.38;3.92;;;9.40;99.90;;;;;;5039899;28;20493;-84
2022/10/12 08:19:31;;;;;;;8.98;3.80;;;9.40;99.90;;;;;;5047587;28;20037;-84
2022/10/12 08:21:57;;;;;;;9.63;3.70;;;9.40;99.90;;;;;;5022677;28;20052;-84
2022/10/12 08:24:22;;;;;;;19.13;3.92;;;9.50;99.90;;;;;;5039311;28;20053;-84
2022/10/12 08:26:48;;;;;;;10.55;4.40;;;9.60;99.90;;;;;;5039006;28;20146;-84
2022/10/12 08:29:14;;;;;;;16.95;5.72;;;9.60;99.90;;;;;;5022195;28;20053;-84
2022/10/12 08:31:40;;;;;;;7.70;4.07;;;9.60;99.90;;;;;;5039040;28;20045;-84
2022/10/12 08:34:05;;;;;;;13.93;4.10;;;9.70;99.90;;;;;;5055768;28;20037;-84
2022/10/12 08:36:31;;;;;;;15.45;4.13;;;9.70;99.90;;;;;;5022664;28;20100;-84
2022/10/12 08:38:57;;;;;;;16.08;4.90;;;9.70;99.90;;;;;;5038228;28;20057;-83
2022/10/12 08:41:49;;;;;;;15.68;5.18;;;9.80;99.90;;;;;;5006521;28;20057;-83
2022/10/12 08:44:27;;;;;;;14.52;4.60;;;9.80;99.90;;;;;;5040411;28;20097;-84
2022/10/12 08:47:00;;;;;;;15.27;4.68;;;9.90;99.90;;;;;;5042716;28;20045;-84
2022/10/12 08:49:29;;;;;;;10.02;4.82;;;9.90;99.90;;;;;;5023276;28;20073;-84
2022/10/12 08:51:56;;;;;;;12.25;4.70;;;9.90;99.90;;;;;;5058550;28;20079;-84
2022/10/12 08:54:25;;;;;;;14.13;4.43;;;9.90;99.90;;;;;;5058612;28;20082;-83
2022/10/12 08:56:54;;;;;;;12.73;4.40;;;9.90;99.90;;;;;;5058458;28;20047;-84
2022/10/12 08:59:20;;;;;;;9.60;4.25;;;10.00;99.90;;;;;;5058585;28;20059;-84
2022/10/12 09:02:22;;;;;;;12.95;4.68;;;10.00;99.90;;;;;;5041651;28;20049;-85
2022/10/12 09:05:14;;;;;;;15.50;5.18;;;10.00;99.90;;;;;;5038507;28;20042;-84
2022/10/12 09:08:24;;;;;;;8.23;3.83;;;10.10;99.90;;;;;;5021906;28;20046;-85
2022/10/12 09:11:28;;;;;;;11.90;4.25;;;10.20;99.90;;;;;;5025010;28;20167;-83
2022/10/12 09:14:03;;;;;;;9.73;4.00;;;10.20;99.90;;;;;;5041014;28;20052;-84
2022/10/12 09:16:32;;;;;;;12.20;3.70;;;10.40;99.90;;;;;;5058126;28;20048;-83
2022/10/12 09:19:07;;;;;;;14.85;4.85;;;10.50;99.90;;;;;;5041515;28;20056;-83
2022/10/12 09:21:33;;;;;;;10.57;4.65;;;10.60;99.90;;;;;;5051033;28;20049;-83
2022/10/12 09:24:01;;;;;;;8.30;3.67;;;10.70;99.90;;;;;;5048935;28;20089;-83
2022/10/12 09:26:35;;;;;;;6.55;3.53;;;10.80;99.90;;;;;;5057908;28;20049;-84
2022/10/12 09:29:11;;;;;;;11.95;3.72;;;10.80;99.90;;;;;;5058060;28;20052;-84
2022/10/12 09:32:05;;;;;;;6.80;3.97;;;11.00;99.90;;;;;;5054650;28;20106;-84
2022/10/12 09:34:31;;;;;;;14.23;4.00;;;11.70;99.90;;;;;;5047880;28;20141;-84
2022/10/12 09:36:57;;;;;;;9.90;3.72;;;12.50;99.90;;;;;;5025426;28;20069;-85
2022/10/12 09:39:36;;;;;;;12.25;3.67;;;12.80;99.90;;;;;;5057475;28;20049;-85
2022/10/12 09:42:03;;;;;;;10.82;4.00;;;13.20;99.90;;;;;;5054063;28;20109;-85
2022/10/12 09:44:40;;;;;;;10.60;3.53;;;13.80;99.90;;;;;;5037832;28;20049;-85
2022/10/12 09:47:28;;;;;;;9.50;3.72;;;14.50;99.90;;;;;;5038044;28;20045;-84
2022/10/12 09:49:57;;;;;;;9.65;3.90;;;15.20;99.90;;;;;;5038556;28;20053;-85
2022/10/12 09:52:30;;;;;;;9.18;4.05;;;15.70;99.90;;;;;;5038317;28;20533;-84
2022/10/12 09:55:02;;;;;;;14.35;3.63;;;15.80;99.90;;;;;;5039264;28;20056;-84
2022/10/12 09:57:33;;;;;;;;;;;15.80;99.90;;;;;;5038533;28;20065;-84
2022/10/12 10:00:01;;;;;;;14.10;3.50;;;15.50;99.90;;;;;;5037997;28;19940;-84
2022/10/12 10:02:27;;;;;;;8.57;3.70;;;15.40;99.90;;;;;;5022099;28;20053;-84
2022/10/12 10:04:53;;;;;;;13.85;3.85;;;15.10;99.90;;;;;;5023380;28;20085;-84
2022/10/12 10:07:29;;;;;;;9.55;3.65;;;14.90;99.90;;;;;;5057964;28;20053;-84
2022/10/12 10:10:23;;;;;;;8.65;3.63;;;14.60;99.90;;;;;;5058123;28;20055;-85
2022/10/12 10:12:51;;;;;;;10.90;3.03;;;14.30;99.90;;;;;;5058370;28;20057;-85
2022/10/12 10:15:30;;;;;;;18.80;3.28;;;14.10;99.90;;;;;;5044408;28;20049;-83
2022/10/12 10:18:02;;;;;;;8.15;3.45;;;14.00;99.90;;;;;;5058546;28;20158;-84
2022/10/12 10:20:33;;;;;;;9.65;3.28;;;14.00;99.90;;;;;;5057596;28;20409;-84
2022/10/12 10:23:01;;;;;;;10.48;3.03;;;13.90;99.90;;;;;;5040771;28;20762;-83
2022/10/12 10:25:27;;;;;;;9.70;2.72;;;13.90;99.90;;;;;;5024986;28;20049;-84
2022/10/12 10:28:31;;;;;;;7.72;3.05;;;13.80;99.90;;;;;;5045439;28;20056;-83
2022/10/12 10:31:01;;;;;;;11.15;2.92;;;13.80;99.90;;;;;;5040397;28;20159;-83
2022/10/12 10:34:11;;;;;;;7.25;2.67;;;13.70;99.90;;;;;;5059000;28;20040;-84
2022/10/12 10:36:55;;;;;;;10.02;3.08;;;13.80;99.90;;;;;;5059430;28;20068;-83
2022/10/12 10:39:46;;;;;;;10.93;3.13;;;13.80;99.90;;;;;;5037724;28;20087;-83
2022/10/12 10:42:33;;;;;;;11.40;3.38;;;13.70;99.90;;;;;;5037764;28;20040;-84
2022/10/12 10:45:26;;;;;;;12.13;2.92;;;13.70;99.90;;;;;;5039275;28;20044;-84
2022/10/12 10:48:16;;;;;;;10.20;3.17;;;13.70;99.90;;;;;;5038816;28;20032;-83
2022/10/12 10:50:49;;;;;;;11.55;3.33;;;13.70;99.90;;;;;;5021147;28;20049;-84
2022/10/12 10:53:25;;;;;;;9.63;3.30;;;13.70;99.90;;;;;;5043589;28;20053;-83
2022/10/12 10:56:10;;;;;;;10.02;3.30;;;13.70;99.90;;;;;;5042127;28;20045;-84
2022/10/12 10:58:44;;;;;;;10.15;3.65;;;13.60;99.90;;;;;;5075094;28;20101;-84
2022/10/12 11:01:42;;;;;;;12.50;4.50;;;13.60;99.90;;;;;;5028191;28;20059;-84
2022/10/12 11:04:12;;;;;;;9.80;3.17;;;13.50;99.90;;;;;;5042986;28;20071;-84
2022/10/12 11:06:40;;;;;;;7.45;3.38;;;13.50;99.90;;;;;;5044359;28;20049;-84
2022/10/12 11:09:18;;;;;;;12.55;3.35;;;13.60;99.90;;;;;;5040268;28;20068;-83
2022/10/12 11:11:49;;;;;;;10.52;3.40;;;13.60;99.90;;;;;;5040717;28;20049;-83
2022/10/12 11:14:19;;;;;;;14.10;4.47;;;13.70;99.90;;;;;;5023988;28;20045;-82
2022/10/12 11:16:54;;;;;;;11.60;3.40;;;13.70;99.90;;;;;;5040715;28;20072;-83
2022/10/12 11:19:42;;;;;;;9.88;2.75;;;13.90;99.90;;;;;;5041397;28;20048;-84
2022/10/12 11:22:48;;;;;;;5.90;2.45;;;14.00;99.90;;;;;;5061563;28;20048;-84
2022/10/12 11:25:30;;;;;;;11.30;3.42;;;14.10;99.90;;;;;;5064174;28;20057;-84
2022/10/12 11:27:55;;;;;;;;;;;14.10;99.90;;;;;;5062273;28;20060;-83
2022/10/12 11:30:24;;;;;;;9.55;3.15;;;14.10;99.90;;;;;;5070533;28;19925;-83
2022/10/12 11:32:53;;;;;;;7.72;2.65;;;14.10;99.90;;;;;;5024199;28;20072;-83
2022/10/12 11:35:26;;;;;;;9.02;2.83;;;14.20;99.90;;;;;;5040098;28;20056;-84
2022/10/12 11:38:04;;;;;;;8.05;2.53;;;14.30;99.90;;;;;;5049648;28;20131;-84
2022/10/12 11:40:52;;;;;;;7.72;2.38;;;14.40;99.90;;;;;;5034023;28;20052;-87
2022/10/12 11:43:37;;;;;;;11.00;2.40;;;14.60;99.90;;;;;;5041901;28;20111;-87
2022/10/12 11:46:09;;;;;;;13.75;2.90;;;14.80;99.90;;;;;;5026388;28;20053;-87
2022/10/12 11:48:49;;;;;;;8.75;2.72;;;14.90;99.90;;;;;;5053489;28;20049;-88
2022/10/12 11:51:14;;;;;;;8.32;2.65;;;15.10;99.90;;;;;;5034160;28;20041;-86
2022/10/12 11:53:59;;;;;;;6.78;2.67;;;15.20;99.90;;;;;;5039984;28;20057;-87
2022/10/12 11:56:32;;;;;;;10.68;3.60;;;15.30;99.90;;;;;;5022673;28;20093;-87
2022/10/12 11:59:03;;;;;;;11.70;3.08;;;15.40;99.90;;;;;;5039704;28;20849;-88
2022/10/12 12:01:34;;;;;;;11.98;3.22;;;15.40;99.90;;;;;;5039536;28;20046;-87
2022/10/12 12:04:14;;;;;;;7.30;3.38;;;15.40;99.90;;;;;;5022659;28;20056;-87
2022/10/12 12:06:51;;;;;;;8.10;2.90;;;15.40;99.90;;;;;;5039797;28;20373;-87
2022/10/12 12:09:21;;;;;;;8.38;3.17;;;15.40;99.90;;;;;;5038929;28;20057;-87
2022/10/12 12:11:46;;;;;;;10.98;3.50;;;15.60;99.90;;;;;;5024548;28;20376;-88
2022/10/12 12:14:24;;;;;;;12.52;3.40;;;15.60;99.90;;;;;;5017919;28;20574;-85
2022/10/12 12:17:12;;;;;;;10.48;3.72;;;15.50;99.90;;;;;;5047498;28;20122;-84
2022/10/12 12:19:43;;;;;;;5.75;3.20;;;15.50;99.90;;;;;;5051780;28;20064;-83
2022/10/12 12:22:28;;;;;;;10.52;3.70;;;15.40;99.90;;;;;;5050692;28;22512;-83
2022/10/12 12:25:09;;;;;;;7.55;3.47;;;15.40;99.90;;;;;;5047085;28;20052;-83
2022/10/12 12:27:45;;;;;;;10.30;4.00;;;15.60;99.90;;;;;;5046830;28;20099;-83
2022/10/12 12:30:14;;;;;;;12.98;3.53;;;15.80;99.90;;;;;;5047436;28;20056;-84
2022/10/12 12:32:52;;;;;;;10.90;3.88;;;15.80;99.90;;;;;;5047103;28;20053;-85
2022/10/12 12:35:38;;;;;;;9.50;3.80;;;15.90;99.90;;;;;;5042834;28;20049;-84
2022/10/12 12:38:13;;;;;;;9.05;3.72;;;16.00;99.90;;;;;;5053608;28;20109;-85
2022/10/12 12:40:40;;;;;;;7.85;3.28;;;16.10;99.90;;;;;;5041939;28;20051;-85
2022/10/12 12:43:36;;;;;;;10.50;3.42;;;16.20;99.90;;;;;;5048238;28;20053;-81
2022/10/12 12:46:09;;;;;;;12.55;3.60;;;16.10;99.90;;;;;;5040970;28;20137;-81
2022/10/12 12:48:38;;;;;;;8.98;3.50;;;16.20;99.90;;;;;;5040794;28;20040;-80
2022/10/12 12:51:08;;;;;;;11.43;3.72;;;16.20;99.90;;;;;;5046735;28;20427;-80
2022/10/12 12:53:49;;;;;;;10.40;3.05;;;16.10;99.90;;;;;;5032366;28;20128;-80
2022/10/12 12:56:30;;;;;;;10.47;3.50;;;16.00;99.90;;;;;;5044648;28;20048;-80
2022/10/12 12:59:23;;;;;;;8.88;3.75;;;15.90;99.90;;;;;;5049651;28;20304;-81
2022/10/12 13:02:17;;;;;;;11.75;3.53;;;15.90;99.90;;;;;;5048562;28;20045;-81
2022/10/12 13:05:20;;;;;;;16.02;3.92;;;15.90;99.90;;;;;;5045377;28;20049;-81